createdAt,value
2023-05-16T00:02:11.415Z,97901.31
2023-05-16T00:04:38.948Z,97905.69
2023-05-16T00:07:06.062Z,97902.59
2023-05-16T00:09:33.017Z,97900.16
2023-05-16T00:12:00.143Z,97896.09
2023-05-16T00:14:27.330Z,97893.91
2023-05-16T00:16:55.037Z,97894.75
2023-05-16T00:19:22.183Z,97900.16
2023-05-16T00:21:49.323Z,97904.97
2023-05-16T00:24:16.894Z,97906.66
2023-05-16T00:26:43.982Z,97902.13
2023-05-16T00:29:10.987Z,97909.00
2023-05-16T00:31:37.944Z,97904.22
2023-05-16T00:34:05.125Z,97899.78
2023-05-16T00:36:32.458Z,97905.19
2023-05-16T00:38:59.397Z,97909.03
2023-05-16T00:41:27.861Z,97905.59
2023-05-16T00:43:54.990Z,97905.72
2023-05-16T00:46:22.000Z,97901.56
2023-05-16T00:48:49.066Z,97897.97
2023-05-16T00:51:17.444Z,97899.19
2023-05-16T00:53:44.733Z,97895.31
2023-05-16T00:56:12.004Z,97891.41
2023-05-16T00:58:39.143Z,97884.91
2023-05-16T01:01:06.373Z,97888.13
2023-05-16T01:03:34.510Z,97888.25
2023-05-16T01:06:01.672Z,97886.59
2023-05-16T01:08:28.883Z,97892.81
2023-05-16T01:11:10.919Z,97900.00
2023-05-16T01:14:03.898Z,97887.84
2023-05-16T01:16:43.017Z,97886.19
2023-05-16T01:19:39.728Z,97889.78
2023-05-16T01:22:46.127Z,97889.28
2023-05-16T01:25:58.387Z,97890.25
2023-05-16T01:28:26.679Z,97890.44
2023-05-16T01:30:53.899Z,97894.75
2023-05-16T01:33:20.857Z,97895.03
2023-05-16T01:36:02.564Z,97895.53
2023-05-16T01:39:08.149Z,97882.09
2023-05-16T01:42:04.203Z,97889.25
2023-05-16T01:44:50.939Z,97890.91
2023-05-16T01:47:21.313Z,97890.97
2023-05-16T01:50:14.734Z,97887.91
2023-05-16T01:53:28.435Z,97891.41
2023-05-16T01:56:01.858Z,97895.88
2023-05-16T01:58:33.630Z,97895.78
2023-05-16T02:01:03.892Z,97906.13
2023-05-16T02:03:32.242Z,97900.69
2023-05-16T02:05:59.653Z,97904.41
2023-05-16T02:08:28.689Z,97900.94
2023-05-16T02:10:55.643Z,97900.88
2023-05-16T02:13:22.674Z,97904.28
2023-05-16T02:15:49.676Z,97915.47
2023-05-16T02:18:17.312Z,97914.34
2023-05-16T02:20:44.429Z,97916.91
2023-05-16T02:23:11.697Z,97911.22
2023-05-16T02:25:38.697Z,97907.09
2023-05-16T02:28:05.641Z,97912.31
2023-05-16T02:30:33.127Z,97913.75
2023-05-16T02:33:00.271Z,97914.34
2023-05-16T02:35:27.579Z,97921.69
2023-05-16T02:37:55.826Z,97908.56
2023-05-16T02:40:24.919Z,97915.78
2023-05-16T02:42:51.976Z,97912.88
2023-05-16T02:45:18.997Z,97903.56
2023-05-16T02:47:46.102Z,97912.28
2023-05-16T02:50:13.585Z,97906.59
2023-05-16T02:52:40.993Z,97915.41
2023-05-16T02:57:38.547Z,97907.03
2023-05-16T03:00:06.579Z,97911.69
2023-05-16T03:02:33.796Z,97909.94
2023-05-16T03:05:01.148Z,97912.19
2023-05-16T03:07:28.091Z,97912.91
2023-05-16T03:09:55.132Z,97912.44
2023-05-16T03:12:22.131Z,97916.59
2023-05-16T03:14:49.162Z,97909.84
2023-05-16T03:17:16.123Z,97910.56
2023-05-16T03:19:43.100Z,97907.25
2023-05-16T03:22:10.062Z,97913.06
2023-05-16T03:24:37.046Z,97908.19
2023-05-16T03:27:04.830Z,97913.78
2023-05-16T03:29:31.825Z,97914.19
2023-05-16T03:31:59.075Z,97921.47
2023-05-16T03:34:26.339Z,97923.44
2023-05-16T03:36:53.505Z,97929.84
2023-05-16T03:39:20.974Z,97922.16
2023-05-16T03:41:48.481Z,97922.50
2023-05-16T03:44:15.595Z,97918.25
2023-05-16T03:46:42.628Z,97918.47
2023-05-16T03:49:10.060Z,97919.22
2023-05-16T03:51:37.364Z,97915.59
2023-05-16T03:54:04.581Z,97917.75
2023-05-16T03:56:31.606Z,97926.84
2023-05-16T03:58:58.576Z,97923.69
2023-05-16T04:01:25.700Z,97927.00
2023-05-16T04:03:52.675Z,97923.25
2023-05-16T04:06:38.423Z,97939.38
2023-05-16T04:09:06.576Z,97937.66
2023-05-16T04:11:34.398Z,97944.28
2023-05-16T04:14:01.873Z,97934.22
2023-05-16T04:16:29.225Z,97942.16
2023-05-16T04:18:56.886Z,97940.06
2023-05-16T04:21:23.879Z,97943.31
2023-05-16T04:23:50.824Z,97949.38
2023-05-16T04:26:18.274Z,97952.03
2023-05-16T04:28:45.893Z,97947.25
2023-05-16T04:31:14.340Z,97947.69
2023-05-16T04:33:41.674Z,97953.00
2023-05-16T04:36:09.201Z,97953.00
2023-05-16T04:38:36.197Z,97958.56
2023-05-16T04:41:03.827Z,97956.81
2023-05-16T04:43:30.924Z,97959.03
2023-05-16T04:45:58.967Z,97954.13
2023-05-16T04:48:26.025Z,97962.38
2023-05-16T04:50:53.411Z,97958.66
2023-05-16T04:53:20.439Z,97959.19
2023-05-16T04:55:47.488Z,97966.94
2023-05-16T04:58:14.452Z,97960.69
2023-05-16T05:00:42.538Z,97955.56
2023-05-16T05:03:09.754Z,97955.31
2023-05-16T05:05:37.169Z,97960.28
2023-05-16T05:08:04.525Z,97954.69
2023-05-16T05:10:31.718Z,97957.97
2023-05-16T05:12:58.804Z,97965.72
2023-05-16T05:15:26.177Z,97960.38
2023-05-16T05:17:53.591Z,97953.47
2023-05-16T05:20:20.928Z,97967.06
2023-05-16T05:22:48.059Z,97964.16
2023-05-16T05:25:15.413Z,97961.03
2023-05-16T05:27:42.461Z,97962.41
2023-05-16T05:30:10.105Z,97970.84
2023-05-16T05:32:37.356Z,97979.03
2023-05-16T05:35:04.934Z,97969.13
2023-05-16T05:37:32.267Z,97972.34
2023-05-16T05:39:59.432Z,97972.50
2023-05-16T05:42:26.350Z,97978.78
2023-05-16T05:44:53.364Z,97979.34
2023-05-16T05:47:20.570Z,97984.47
2023-05-16T05:49:48.378Z,97993.31
2023-05-16T05:52:15.353Z,97990.28
2023-05-16T05:54:42.321Z,97982.03
2023-05-16T05:57:09.259Z,97990.31
2023-05-16T05:59:36.317Z,97992.22
2023-05-16T06:02:03.493Z,97988.38
2023-05-16T06:04:30.532Z,97992.22
2023-05-16T06:06:57.523Z,97989.94
2023-05-16T06:09:24.568Z,97987.84
2023-05-16T06:11:51.776Z,97996.09
2023-05-16T06:14:20.578Z,97999.31
2023-05-16T06:16:47.557Z,98006.53
2023-05-16T06:19:16.286Z,98007.88
2023-05-16T06:21:44.946Z,98009.50
2023-05-16T06:24:12.497Z,98002.59
2023-05-16T06:26:39.842Z,98005.97
2023-05-16T06:29:07.279Z,98008.88
2023-05-16T06:31:34.558Z,98011.31
2023-05-16T06:34:02.407Z,98009.81
2023-05-16T06:36:29.369Z,98019.22
2023-05-16T06:38:56.790Z,98009.06
2023-05-16T06:41:23.744Z,98015.28
2023-05-16T06:43:51.946Z,98017.19
2023-05-16T06:46:19.020Z,98020.88
2023-05-16T06:48:46.210Z,98019.00
2023-05-16T06:51:13.391Z,98022.81
2023-05-16T06:53:40.667Z,98021.38
2023-05-16T06:56:08.071Z,98017.66
2023-05-16T06:58:35.163Z,98024.41
2023-05-16T07:01:02.164Z,98025.00
2023-05-16T07:03:29.911Z,98027.97
2023-05-16T07:05:57.280Z,98019.53
2023-05-16T07:08:26.236Z,98023.41
2023-05-16T07:10:53.282Z,98027.53
2023-05-16T07:13:20.785Z,98030.69
2023-05-16T07:15:47.728Z,98028.59
2023-05-16T07:18:14.830Z,98024.88
2023-05-16T07:20:41.856Z,98026.66
2023-05-16T07:23:09.037Z,98028.94
2023-05-16T07:25:36.757Z,98020.34
2023-05-16T07:28:04.002Z,98021.41
2023-05-16T07:30:31.625Z,98019.84
2023-05-16T07:32:59.222Z,98022.84
2023-05-16T07:35:26.507Z,98023.53
2023-05-16T07:37:53.795Z,98025.03
2023-05-16T07:40:26.021Z,98019.59
2023-05-16T07:42:53.256Z,98020.59
2023-05-16T07:45:20.859Z,98025.41
2023-05-16T07:47:47.960Z,98037.34
2023-05-16T07:50:15.271Z,98034.19
2023-05-16T07:52:42.323Z,98035.13
2023-05-16T07:55:09.722Z,98035.66
2023-05-16T07:57:36.855Z,98047.13
2023-05-16T08:00:04.364Z,98044.16
2023-05-16T08:02:39.446Z,98044.78
2023-05-16T08:05:07.614Z,98042.78
2023-05-16T08:07:34.749Z,98044.09
2023-05-16T08:10:01.749Z,98044.00
2023-05-16T08:12:28.933Z,98048.66
2023-05-16T08:14:55.978Z,98050.44
2023-05-16T08:17:23.164Z,98049.56
2023-05-16T08:19:50.241Z,98056.91
2023-05-16T08:22:17.518Z,98055.16
2023-05-16T08:24:44.945Z,98051.50
2023-05-16T08:27:12.503Z,98056.72
2023-05-16T08:29:39.990Z,98057.56
2023-05-16T08:32:09.294Z,98057.94
2023-05-16T08:34:37.261Z,98061.72
2023-05-16T08:37:04.733Z,98066.75
2023-05-16T08:39:31.808Z,98061.56
2023-05-16T08:41:59.011Z,98069.41
2023-05-16T08:44:26.543Z,98070.78
2023-05-16T08:46:55.149Z,98086.91
2023-05-16T08:49:23.055Z,98075.53
2023-05-16T08:51:52.370Z,98085.75
2023-05-16T08:54:19.414Z,98092.72
2023-05-16T08:56:48.334Z,98090.28
2023-05-16T08:59:16.173Z,98094.38
2023-05-16T09:01:43.937Z,98085.25
2023-05-16T09:04:11.535Z,98087.66
2023-05-16T09:06:38.603Z,98083.69
2023-05-16T09:09:09.447Z,98081.72
2023-05-16T09:11:37.231Z,98096.97
2023-05-16T09:14:05.667Z,98093.03
2023-05-16T09:16:32.804Z,98097.09
2023-05-16T09:19:01.975Z,98088.81
2023-05-16T09:21:34.819Z,98086.22
2023-05-16T09:24:07.157Z,98090.88
2023-05-16T09:26:36.440Z,98082.94
2023-05-16T09:29:14.116Z,98079.03
2023-05-16T09:31:41.336Z,98081.06
2023-05-16T09:34:11.394Z,98074.25
2023-05-16T09:36:39.651Z,98082.25
2023-05-16T09:39:08.121Z,98088.75
2023-05-16T09:41:36.554Z,98094.13
2023-05-16T09:44:07.295Z,98096.84
2023-05-16T09:46:44.649Z,98100.41
2023-05-16T09:49:14.876Z,98100.16
2023-05-16T09:51:42.175Z,98100.50
2023-05-16T09:54:09.962Z,98101.94
2023-05-16T09:56:50.263Z,98100.09
2023-05-16T09:59:17.659Z,98099.13
2023-05-16T10:01:45.105Z,98099.31
2023-05-16T10:04:16.379Z,98092.75
2023-05-16T10:06:45.040Z,98092.13
2023-05-16T10:09:13.410Z,98090.47
2023-05-16T10:11:43.540Z,98093.50
2023-05-16T10:14:11.986Z,98090.88
2023-05-16T10:16:44.641Z,98090.53
2023-05-16T10:19:12.399Z,98089.34
2023-05-16T10:21:45.965Z,98089.09
2023-05-16T10:24:18.439Z,98091.69
2023-05-16T10:26:45.674Z,98081.00
2023-05-16T10:29:12.919Z,98085.50
2023-05-16T10:31:40.610Z,98081.28
2023-05-16T10:34:07.959Z,98084.31
2023-05-16T10:36:35.190Z,98084.78
2023-05-16T10:39:04.058Z,98086.91
2023-05-16T10:41:33.653Z,98091.41
2023-05-16T10:44:02.498Z,98088.59
2023-05-16T10:46:30.541Z,98077.31
2023-05-16T10:48:58.907Z,98084.72
2023-05-16T10:51:39.108Z,98079.03
2023-05-16T10:54:11.592Z,98079.69
2023-05-16T10:56:39.338Z,98086.38
2023-05-16T10:59:28.556Z,98088.16
2023-05-16T11:01:57.035Z,98085.06
2023-05-16T11:04:24.376Z,98089.53
2023-05-16T11:06:53.492Z,98093.25
2023-05-16T11:09:24.021Z,98099.56
2023-05-16T11:12:06.452Z,98092.50
2023-05-16T11:14:33.584Z,98098.47
2023-05-16T11:17:24.126Z,98099.66
2023-05-16T11:20:01.402Z,98100.72
2023-05-16T11:22:34.280Z,98102.25
2023-05-16T11:25:06.015Z,98110.44
2023-05-16T11:27:45.840Z,98112.75
2023-05-16T11:30:16.397Z,98111.94
2023-05-16T11:32:46.981Z,98116.97
2023-05-16T11:35:18.578Z,98117.72
2023-05-16T11:37:47.223Z,98118.13
2023-05-16T11:40:16.768Z,98122.09
2023-05-16T11:42:48.497Z,98116.06
2023-05-16T11:45:18.735Z,98116.72
2023-05-16T11:47:50.424Z,98126.25
2023-05-16T11:50:20.667Z,98125.38
2023-05-16T11:52:53.733Z,98126.03
2023-05-16T11:55:36.922Z,98129.88
2023-05-16T11:58:08.897Z,98132.31
2023-05-16T12:00:36.110Z,98141.56
2023-05-16T12:03:05.763Z,98136.34
2023-05-16T12:05:35.125Z,98140.75
2023-05-16T12:08:05.588Z,98138.69
2023-05-16T12:10:34.785Z,98133.28
2023-05-16T12:13:02.639Z,98135.06
2023-05-16T12:15:30.265Z,98134.53
2023-05-16T12:17:57.864Z,98136.34
2023-05-16T12:20:26.222Z,98135.06
2023-05-16T12:22:53.461Z,98136.59
2023-05-16T12:25:26.791Z,98145.88
2023-05-16T12:27:56.204Z,98149.75
2023-05-16T12:30:25.313Z,98148.88
2023-05-16T12:33:00.943Z,98142.94
2023-05-16T12:35:33.884Z,98146.63
2023-05-16T12:38:09.253Z,98158.16
2023-05-16T12:40:42.349Z,98149.88
2023-05-16T12:43:18.111Z,98147.97
2023-05-16T12:45:58.753Z,98151.16
2023-05-16T12:48:34.665Z,98155.25
2023-05-16T12:51:18.954Z,98159.75
2023-05-16T12:54:01.638Z,98161.16
2023-05-16T12:56:41.878Z,98160.34
2023-05-16T12:59:09.490Z,98162.13
2023-05-16T13:01:37.111Z,98158.16
2023-05-16T13:04:05.295Z,98163.88
2023-05-16T13:06:44.913Z,98163.66
2023-05-16T13:09:19.744Z,98163.34
2023-05-16T13:11:46.709Z,98169.03
2023-05-16T13:14:13.799Z,98170.34
2023-05-16T13:16:40.864Z,98174.81
2023-05-16T13:19:08.009Z,98168.78
2023-05-16T13:21:35.609Z,98170.72
2023-05-16T13:24:02.608Z,98171.69
2023-05-16T13:26:30.350Z,98178.47
2023-05-16T13:28:57.330Z,98174.97
2023-05-16T13:31:24.400Z,98180.00
2023-05-16T13:33:52.249Z,98176.28
2023-05-16T13:36:19.288Z,98188.22
2023-05-16T13:38:46.524Z,98182.97
2023-05-16T13:41:14.177Z,98188.19
2023-05-16T13:43:41.335Z,98198.34
2023-05-16T13:46:08.654Z,98199.94
2023-05-16T13:48:36.202Z,98196.56
2023-05-16T13:51:03.289Z,98196.25
2023-05-16T13:53:30.304Z,98198.75
2023-05-16T13:55:57.470Z,98202.66
2023-05-16T13:58:24.643Z,98198.91
2023-05-16T14:00:51.933Z,98213.75
2023-05-16T14:03:20.536Z,98209.25
2023-05-16T14:05:49.700Z,98212.88
2023-05-16T14:08:16.702Z,98208.25
2023-05-16T14:10:43.817Z,98198.22
2023-05-16T14:13:10.988Z,98200.94
2023-05-16T14:15:38.046Z,98206.47
2023-05-16T14:18:05.409Z,98206.56
2023-05-16T14:20:32.435Z,98205.59
2023-05-16T14:22:59.463Z,98201.34
2023-05-16T14:25:26.955Z,98216.03
2023-05-16T14:27:54.288Z,98214.59
2023-05-16T14:30:21.579Z,98218.09
2023-05-16T14:32:48.624Z,98215.41
2023-05-16T14:35:16.127Z,98206.06
2023-05-16T14:37:43.120Z,98206.53
2023-05-16T14:40:10.885Z,98202.19
2023-05-16T14:42:39.871Z,98204.41
2023-05-16T14:45:07.630Z,98204.16
2023-05-16T14:47:34.797Z,98204.41
2023-05-16T14:50:02.080Z,98200.19
2023-05-16T14:52:29.066Z,98213.97
2023-05-16T14:54:56.223Z,98215.94
2023-05-16T14:57:23.239Z,98212.44
2023-05-16T14:59:50.576Z,98213.53
2023-05-16T15:02:17.628Z,98224.66
2023-05-16T15:04:44.736Z,98224.03
2023-05-16T15:07:11.819Z,98229.25
2023-05-16T15:09:38.794Z,98228.72
2023-05-16T15:12:06.541Z,98223.34
2023-05-16T15:14:33.667Z,98233.03
2023-05-16T15:17:00.829Z,98231.16
2023-05-16T15:19:27.983Z,98232.00
2023-05-16T15:21:55.227Z,98227.47
2023-05-16T15:24:25.495Z,98227.44
2023-05-16T15:26:52.952Z,98229.94
2023-05-16T15:29:20.840Z,98231.81
2023-05-16T15:31:47.901Z,98232.75
2023-05-16T15:34:15.127Z,98228.28
2023-05-16T15:36:42.392Z,98238.34
2023-05-16T15:39:09.444Z,98233.22
2023-05-16T15:42:00.587Z,98236.41
2023-05-16T15:44:24.112Z,98234.31
2023-05-16T15:46:51.328Z,98228.84
2023-05-16T15:49:19.907Z,98237.75
2023-05-16T15:51:47.798Z,98232.53
2023-05-16T15:54:14.960Z,98237.59
2023-05-16T15:56:41.939Z,98233.25
2023-05-16T15:59:08.975Z,98236.69
2023-05-16T16:01:36.413Z,98243.75
2023-05-16T16:04:03.501Z,98237.88
2023-05-16T16:06:31.534Z,98238.78
2023-05-16T16:08:58.604Z,98239.53
2023-05-16T16:11:27.276Z,98235.97
2023-05-16T16:13:54.458Z,98235.63
2023-05-16T16:16:21.701Z,98240.72
2023-05-16T16:18:49.657Z,98240.41
2023-05-16T16:21:16.754Z,98240.38
2023-05-16T16:23:43.707Z,98236.81
2023-05-16T16:26:10.717Z,98251.97
2023-05-16T16:28:37.742Z,98241.59
2023-05-16T16:31:04.961Z,98240.41
2023-05-16T16:33:32.396Z,98247.34
2023-05-16T16:35:59.477Z,98251.63
2023-05-16T16:38:26.700Z,98241.97
2023-05-16T16:40:53.736Z,98258.28
2023-05-16T16:43:20.938Z,98250.38
2023-05-16T16:45:48.303Z,98250.28
2023-05-16T16:48:15.336Z,98257.44
2023-05-16T16:50:43.292Z,98256.75
2023-05-16T16:53:11.420Z,98256.66
2023-05-16T16:55:40.741Z,98259.72
2023-05-16T16:58:08.079Z,98264.09
2023-05-16T17:00:35.233Z,98265.88
2023-05-16T17:03:04.798Z,98259.84
2023-05-16T17:05:32.095Z,98267.22
2023-05-16T17:07:59.351Z,98275.44
2023-05-16T17:10:26.438Z,98266.84
2023-05-16T17:12:54.614Z,98267.38
2023-05-16T17:15:22.012Z,98268.09
2023-05-16T17:17:49.672Z,98265.75
2023-05-16T17:20:17.113Z,98275.81
2023-05-16T17:22:44.821Z,98272.00
2023-05-16T17:25:12.335Z,98277.72
2023-05-16T17:27:41.716Z,98274.63
2023-05-16T17:30:10.735Z,98276.81
2023-05-16T17:32:37.875Z,98283.13
2023-05-16T17:35:06.094Z,98279.66
2023-05-16T17:37:33.323Z,98277.78
2023-05-16T17:40:00.549Z,98279.94
2023-05-16T17:42:27.890Z,98287.84
2023-05-16T17:44:54.913Z,98286.22
2023-05-16T17:47:22.231Z,98287.78
2023-05-16T17:49:49.723Z,98288.88
2023-05-16T17:52:16.916Z,98292.22
2023-05-16T17:54:44.162Z,98293.41
2023-05-16T17:57:11.244Z,98288.72
2023-05-16T17:59:38.536Z,98296.19
2023-05-16T18:02:10.153Z,98298.44
2023-05-16T18:04:37.896Z,98304.91
2023-05-16T18:07:05.622Z,98306.41
2023-05-16T18:09:32.921Z,98314.38
2023-05-16T18:12:01.299Z,98311.56
2023-05-16T18:14:28.377Z,98312.72
2023-05-16T18:16:55.369Z,98318.13
2023-05-16T18:19:22.547Z,98319.81
2023-05-16T18:21:49.845Z,98325.81
2023-05-16T18:24:16.948Z,98325.53
2023-05-16T18:26:46.593Z,98331.16
2023-05-16T18:29:13.956Z,98333.34
2023-05-16T18:31:42.551Z,98338.72
2023-05-16T18:34:10.398Z,98345.88
2023-05-16T18:36:37.458Z,98341.84
2023-05-16T18:39:04.430Z,98344.31
2023-05-16T18:41:31.571Z,98343.66
2023-05-16T18:43:59.051Z,98346.63
2023-05-16T18:46:26.045Z,98348.63
2023-05-16T18:48:57.556Z,98357.44
2023-05-16T18:51:25.353Z,98349.72
2023-05-16T18:53:52.747Z,98354.22
2023-05-16T18:56:19.985Z,98359.19
2023-05-16T18:58:47.210Z,98360.19
2023-05-16T19:01:14.420Z,98357.63
2023-05-16T19:03:41.624Z,98366.59
2023-05-16T19:06:08.875Z,98371.13
2023-05-16T19:08:46.976Z,98370.78
2023-05-16T19:11:14.796Z,98377.75
2023-05-16T19:13:41.966Z,98382.41
2023-05-16T19:16:09.659Z,98391.69
2023-05-16T19:18:37.231Z,98392.16
2023-05-16T19:21:04.587Z,98399.06
2023-05-16T19:23:31.875Z,98397.25
2023-05-16T19:25:58.911Z,98400.19
2023-05-16T19:28:26.005Z,98404.53
2023-05-16T19:30:53.005Z,98407.75
2023-05-16T19:33:21.381Z,98415.31
2023-05-16T19:35:49.014Z,98417.78
2023-05-16T19:38:18.207Z,98430.97
2023-05-16T19:40:45.908Z,98433.16
2023-05-16T19:43:13.174Z,98428.72
2023-05-16T19:45:40.288Z,98426.78
2023-05-16T19:48:08.789Z,98429.00
2023-05-16T19:50:36.571Z,98438.81
2023-05-16T19:53:04.347Z,98436.50
2023-05-16T19:55:31.907Z,98430.41
2023-05-16T19:57:59.082Z,98436.63
2023-05-16T20:00:26.100Z,98435.22
2023-05-16T20:02:53.207Z,98442.81
2023-05-16T20:05:23.246Z,98442.88
2023-05-16T20:07:53.472Z,98433.28
2023-05-16T20:10:22.047Z,98441.03
2023-05-16T20:12:49.452Z,98441.25
2023-05-16T20:15:16.565Z,98441.78
2023-05-16T20:17:44.304Z,98440.44
2023-05-16T20:20:11.422Z,98448.88
2023-05-16T20:22:39.429Z,98451.91
2023-05-16T20:25:07.698Z,98453.53
2023-05-16T20:27:35.508Z,98453.84
2023-05-16T20:30:04.453Z,98460.44
2023-05-16T20:32:31.628Z,98465.09
2023-05-16T20:34:58.657Z,98464.44
2023-05-16T20:37:26.665Z,98459.44
2023-05-16T20:39:54.410Z,98469.56
2023-05-16T20:42:21.837Z,98468.66
2023-05-16T20:44:48.808Z,98474.66
2023-05-16T20:47:17.105Z,98471.78
2023-05-16T20:49:44.332Z,98472.53
2023-05-16T20:52:11.624Z,98471.31
2023-05-16T20:54:38.784Z,98479.84
2023-05-16T20:57:07.389Z,98480.81
2023-05-16T20:59:34.910Z,98486.63
2023-05-16T21:02:01.966Z,98484.25
2023-05-16T21:04:29.049Z,98482.16
2023-05-16T21:06:56.240Z,98482.81
2023-05-16T21:09:23.262Z,98484.41
2023-05-16T21:11:50.302Z,98485.75
2023-05-16T21:14:17.288Z,98489.50
2023-05-16T21:16:44.733Z,98498.50
2023-05-16T21:19:11.867Z,98495.69
2023-05-16T21:21:41.478Z,98490.28
2023-05-16T21:24:08.486Z,98496.56
2023-05-16T21:26:35.476Z,98506.66
2023-05-16T21:29:02.628Z,98508.97
2023-05-16T21:31:29.911Z,98508.16
2023-05-16T21:33:56.935Z,98509.06
2023-05-16T21:36:24.632Z,98512.78
2023-05-16T21:38:51.611Z,98514.56
2023-05-16T21:41:19.691Z,98519.53
2023-05-16T21:43:46.804Z,98519.13
2023-05-16T21:46:14.073Z,98527.91
2023-05-16T21:48:41.486Z,98523.69
2023-05-16T21:51:08.660Z,98523.66
2023-05-16T21:53:35.733Z,98536.63
2023-05-16T21:56:02.702Z,98537.66
2023-05-16T21:58:29.670Z,98541.00
2023-05-16T22:00:56.711Z,98547.03
2023-05-16T22:03:24.304Z,98544.22
2023-05-16T22:05:51.494Z,98547.22
2023-05-16T22:08:18.453Z,98550.09
2023-05-16T22:10:45.834Z,98552.31
2023-05-16T22:13:13.076Z,98546.06
2023-05-16T22:15:42.472Z,98552.97
2023-05-16T22:18:12.829Z,98558.63
2023-05-16T22:20:39.991Z,98555.13
2023-05-16T22:23:06.933Z,98557.53
2023-05-16T22:25:33.890Z,98560.28
2023-05-16T22:28:00.904Z,98544.81
2023-05-16T22:30:28.071Z,98545.66
2023-05-16T22:32:57.084Z,98552.44
2023-05-16T22:35:25.400Z,98543.03
2023-05-16T22:37:52.442Z,98547.41
2023-05-16T22:40:22.384Z,98549.34
2023-05-16T22:42:49.366Z,98549.00
2023-05-16T22:45:16.323Z,98548.66
2023-05-16T22:47:43.669Z,98544.41
2023-05-16T22:50:11.332Z,98547.41
2023-05-16T22:52:43.941Z,98546.56
2023-05-16T22:55:11.651Z,98548.78
2023-05-16T22:57:38.643Z,98561.16
2023-05-16T23:00:07.756Z,98555.75
2023-05-16T23:02:35.030Z,98554.44
2023-05-16T23:05:02.549Z,98561.00
2023-05-16T23:07:30.414Z,98565.09
2023-05-16T23:09:57.567Z,98566.38
2023-05-16T23:12:25.373Z,98571.06
2023-05-16T23:14:52.540Z,98570.44
2023-05-16T23:17:19.563Z,98571.88
2023-05-16T23:19:46.759Z,98577.84
2023-05-16T23:22:13.815Z,98582.09
2023-05-16T23:24:40.889Z,98585.63
2023-05-16T23:27:08.288Z,98588.50
2023-05-16T23:29:35.286Z,98585.22
2023-05-16T23:32:02.621Z,98585.22
2023-05-16T23:34:29.831Z,98588.13
2023-05-16T23:36:56.827Z,98602.47
2023-05-16T23:39:23.873Z,98593.44
2023-05-16T23:41:50.994Z,98595.31
2023-05-16T23:44:18.012Z,98603.72
2023-05-16T23:46:44.994Z,98598.56
2023-05-16T23:49:12.025Z,98598.19
2023-05-16T23:51:55.997Z,98605.56
2023-05-16T23:54:24.082Z,98602.91
2023-05-16T23:56:51.312Z,98611.31
2023-05-16T23:59:21.456Z,98604.94
